Time;durP1;ratioP1;P1;durP2;ratioP2;P2;SDS_P1;SDS_P2;PMS_P1;PMS_P2;Temp;Humidity;BMP_temperature;BMP_pressure;BME280_temperature;BME280_humidity;BME280_pressure;Samples;Min_cycle;Max_cycle;Signal;HPM_P1;HPM_P2
2023/02/08 00:00:45;;;;;;;28.93;23.40;;;-3.20;99.90;;;;;;2622288;39;20817;-85
2023/02/08 00:06:33;;;;;;;33.00;24.00;;;-3.10;99.90;;;;;;2622009;54;20371;-86
2023/02/08 00:12:21;;;;;;;27.70;21.70;;;-3.30;99.90;;;;;;2622677;54;20407;-86
2023/02/08 00:18:09;;;;;;;31.27;23.47;;;-3.30;99.90;;;;;;2623555;54;20120;-86
2023/02/08 00:23:57;;;;;;;33.93;23.57;;;-3.10;99.90;;;;;;2623382;54;20359;-87
2023/02/08 00:29:45;;;;;;;30.00;21.27;;;-3.40;99.90;;;;;;2624486;54;20161;-85
2023/02/08 00:41:47;;;;;;;29.90;22.83;;;-3.30;99.90;;;;;;2624168;54;20383;-87
2023/02/08 00:47:40;;;;;;;36.50;23.30;;;-3.50;99.90;;;;;;2624957;54;20139;-86
2023/02/08 01:03:22;;;;;;;32.83;23.63;;;-3.60;99.90;;;;;;2623587;54;20949;-87
2023/02/08 01:09:10;;;;;;;31.00;22.90;;;-3.50;99.90;;;;;;2623077;54;20398;-86
2023/02/08 01:15:03;;;;;;;39.10;32.27;;;-3.30;99.90;;;;;;2623913;39;20815;-87
2023/02/08 01:20:50;;;;;;;49.20;34.47;;;-3.20;99.90;;;;;;2623785;46;20409;-86
2023/02/08 01:26:37;;;;;;;39.23;32.57;;;-3.30;99.90;;;;;;2622517;54;20131;-85
2023/02/08 01:32:25;;;;;;;47.90;33.30;;;-3.30;99.90;;;;;;2622821;54;20360;-86
2023/02/08 01:38:12;;;;;;;49.93;37.20;;;-3.30;99.90;;;;;;2624366;54;20118;-87
2023/02/08 01:44:04;;;;;;;50.93;39.27;;;-3.60;99.90;;;;;;2623609;54;20756;-86
2023/02/08 01:49:52;;;;;;;49.50;40.80;;;-3.70;99.90;;;;;;2622623;46;20444;-86
2023/02/08 01:58:35;;;;;;;61.77;45.17;;;-3.70;99.90;;;;;;2622879;31;20843;-85
2023/02/08 02:01:11;;;;;;;56.53;45.60;;;-3.70;99.90;;;;;;2622359;46;20475;-86
2023/02/08 02:07:00;;;;;;;42.70;36.67;;;-3.70;99.90;;;;;;2618968;54;20379;-85
2023/02/08 02:12:49;;;;;;;52.27;39.47;;;-3.80;99.90;;;;;;2622248;54;20373;-87
2023/02/08 02:18:36;;;;;;;44.57;39.57;;;-3.90;99.90;;;;;;2621462;54;20429;-85
2023/02/08 02:28:02;;;;;;;56.63;39.37;;;-3.80;99.90;;;;;;2620889;54;20407;-86
2023/02/08 02:33:54;;;;;;;46.37;35.30;;;-3.90;99.90;;;;;;2620558;54;20467;-88
2023/02/08 02:55:45;;;;;;;39.03;27.97;;;-4.00;99.90;;;;;;2622847;54;20461;-88
2023/02/08 02:58:36;;;;;;;38.07;24.83;;;-4.00;99.90;;;;;;2622914;54;20375;-88
2023/02/08 03:01:02;;;;;;;33.70;24.57;;;-4.10;99.90;;;;;;2622898;46;20375;-88
2023/02/08 03:07:08;;;;;;;34.87;26.90;;;-4.10;99.90;;;;;;2622762;54;20379;-88
2023/02/08 03:13:03;;;;;;;30.87;24.43;;;-4.00;99.90;;;;;;2622178;54;20378;-86
2023/02/08 03:18:53;;;;;;;40.60;27.00;;;-4.20;99.90;;;;;;2621860;54;20445;-87
2023/02/08 03:28:22;;;;;;;32.47;25.13;;;-4.20;99.90;;;;;;2623186;54;20406;-86
2023/02/08 03:40:32;;;;;;;28.03;19.53;;;-4.10;99.90;;;;;;2623564;54;20967;-86
2023/02/08 03:49:54;;;;;;;23.63;19.03;;;-4.30;99.90;;;;;;2622552;54;20391;-88
2023/02/08 03:55:44;;;;;;;27.03;20.03;;;-4.50;99.90;;;;;;2621927;54;20374;-85
2023/02/08 03:58:33;;;;;;;25.60;19.73;;;-4.40;99.90;;;;;;2621736;46;20393;-87
2023/02/08 04:01:12;;;;;;;27.97;20.30;;;-4.40;99.90;;;;;;2619848;47;20468;-87
2023/02/08 04:07:00;;;;;;;29.63;20.33;;;-4.40;99.90;;;;;;2618834;54;20382;-86
2023/02/08 04:12:48;;;;;;;25.70;20.23;;;-4.40;99.90;;;;;;2619237;54;20460;-86
2023/02/08 04:21:57;;;;;;;29.63;20.33;;;-4.40;99.90;;;;;;2619480;54;20368;-86
2023/02/08 04:27:44;;;;;;;29.23;21.40;;;-4.50;99.90;;;;;;2619659;54;20122;-87
2023/02/08 04:33:32;;;;;;;30.77;22.87;;;-4.50;99.90;;;;;;2618832;54;20118;-84
2023/02/08 04:36:35;;;;;;;33.10;24.90;;;-4.50;99.90;;;;;;2619986;46;20387;-87
2023/02/08 04:39:03;;;;;;;28.63;20.20;;;-4.60;99.90;;;;;;2620015;46;20786;-87
2023/02/08 04:44:51;;;;;;;25.30;19.07;;;-4.60;99.90;;;;;;2620915;54;20400;-87
2023/02/08 04:50:39;;;;;;;26.03;19.87;;;-4.60;99.90;;;;;;2626248;54;20122;-86
2023/02/08 04:56:26;;;;;;;23.87;19.57;;;-4.50;99.90;;;;;;2626733;54;20433;-89
2023/02/08 05:05:59;;;;;;;27.87;19.93;;;-4.60;99.90;;;;;;2626411;54;20479;-89
2023/02/08 05:11:48;;;;;;;28.50;21.03;;;-4.70;99.90;;;;;;2621826;54;20387;-87
2023/02/08 05:17:37;;;;;;;36.00;21.90;;;-4.70;99.90;;;;;;2622411;54;20366;-87
2023/02/08 05:23:26;;;;;;;30.40;22.17;;;-4.60;99.90;;;;;;2621243;54;20351;-86
2023/02/08 05:29:14;;;;;;;31.60;21.97;;;-4.70;99.90;;;;;;2621674;54;20353;-86
2023/02/08 05:35:02;;;;;;;29.43;21.50;;;-4.80;99.90;;;;;;2620762;54;20354;-87
2023/02/08 05:40:50;;;;;;;27.67;20.33;;;-4.60;99.90;;;;;;2621779;31;20604;-86
2023/02/08 05:46:38;;;;;;;28.53;20.80;;;-4.70;99.90;;;;;;2621383;54;20422;-88
2023/02/08 05:52:27;;;;;;;31.47;23.03;;;-4.90;99.90;;;;;;2621355;54;20339;-86
2023/02/08 05:58:15;;;;;;;27.67;22.57;;;-4.90;99.90;;;;;;2621695;54;20455;-89
2023/02/08 06:01:21;;;;;;;37.30;25.03;;;-4.80;99.90;;;;;;2621123;47;20386;-87
2023/02/08 06:03:47;;;;;;;34.63;23.80;;;-4.70;99.90;;;;;;2621644;54;20398;-88
2023/02/08 06:14:12;;;;;;;27.63;21.20;;;-4.80;99.90;;;;;;2620128;54;20391;-87
2023/02/08 06:20:01;;;;;;;36.43;23.17;;;-4.80;99.90;;;;;;2619612;54;20408;-88
2023/02/08 06:25:57;;;;;;;40.97;24.60;;;-4.80;99.90;;;;;;2619137;54;20435;-88
2023/02/08 06:31:50;;;;;;;40.43;25.97;;;-4.90;99.90;;;;;;2619545;54;20422;-87
2023/02/08 06:37:58;;;;;;;;;;;;;;;;;;;;;
2023/02/08 06:43:52;;;;;;;32.33;25.13;;;-4.80;99.90;;;;;;2619977;54;20909;-90
2023/02/08 06:49:45;;;;;;;34.37;23.70;;;-4.80;99.90;;;;;;2620745;54;20373;-86
2023/02/08 06:55:38;;;;;;;38.20;23.80;;;-4.80;99.90;;;;;;2620116;54;20343;-86
2023/02/08 07:01:34;;;;;;;33.83;23.27;;;-4.70;99.90;;;;;;2619014;54;20346;-87
2023/02/08 07:14:27;;;;;;;32.13;24.43;;;-4.60;99.90;;;;;;2619093;54;20488;-85
2023/02/08 07:26:38;;;;;;;35.27;24.30;;;-4.40;99.90;;;;;;2619128;54;20355;-85
2023/02/08 07:32:34;;;;;;;44.70;27.07;;;-4.30;99.90;;;;;;2618639;54;20350;-87
2023/02/08 07:38:26;;;;;;;37.17;25.30;;;-2.20;99.90;;;;;;2618036;54;20394;-86
2023/02/08 07:51:12;;;;;;;38.20;25.50;;;-0.80;99.90;;;;;;2625150;54;20369;-87
2023/02/08 08:02:50;;;;;;;30.33;24.27;;;-0.50;99.90;;;;;;2615167;54;20402;-71
2023/02/08 08:08:38;;;;;;;32.70;24.63;;;0.00;99.90;;;;;;2615410;46;20953;-73
2023/02/08 08:14:25;;;;;;;28.70;24.53;;;1.80;99.90;;;;;;2615256;54;20423;-72
2023/02/08 08:20:13;;;;;;;30.00;26.57;;;1.80;99.90;;;;;;2615066;54;20269;-73
2023/02/08 08:26:16;;;;;;;35.20;27.93;;;3.20;94.70;;;;;;2615202;54;20142;-71
2023/02/08 08:32:05;;;;;;;30.70;25.07;;;5.50;40.60;;;;;;2615325;39;20748;-72
2023/02/08 08:37:53;;;;;;;29.47;26.63;;;6.30;29.10;;;;;;2614147;54;20367;-70
2023/02/08 08:43:41;;;;;;;32.97;29.60;;;7.00;20.90;;;;;;2615040;54;20146;-71
2023/02/08 08:49:28;;;;;;;32.60;29.17;;;7.50;15.90;;;;;;2615196;54;20672;-71
2023/02/08 08:55:16;;;;;;;32.03;28.73;;;8.00;13.90;;;;;;2614348;54;20146;-71
2023/02/08 09:01:04;;;;;;;25.13;21.20;;;9.60;1.00;;;;;;2614797;54;20114;-71
2023/02/08 09:06:52;;;;;;;22.10;20.10;;;8.60;1.00;;;;;;2614867;54;20159;-72
2023/02/08 09:12:40;;;;;;;19.90;17.97;;;8.60;1.00;;;;;;2615441;39;20525;-71
2023/02/08 09:18:28;;;;;;;20.23;18.43;;;9.00;1.00;;;;;;2615074;54;20166;-69
2023/02/08 09:24:16;;;;;;;22.80;17.80;;;11.00;1.00;;;;;;2615373;39;20641;-71
2023/02/08 09:30:04;;;;;;;20.87;18.87;;;12.40;1.00;;;;;;2614600;54;20399;-71
2023/02/08 09:35:51;;;;;;;21.50;19.70;;;12.80;1.00;;;;;;2615079;54;20415;-71
2023/02/08 09:41:41;;;;;;;19.80;18.27;;;13.90;1.00;;;;;;2614823;54;20139;-72
2023/02/08 09:47:33;;;;;;;18.67;17.27;;;11.80;1.00;;;;;;2614632;54;20406;-71
2023/02/08 09:53:33;;;;;;;18.20;16.80;;;13.70;1.00;;;;;;2615287;54;20384;-72
2023/02/08 09:59:28;;;;;;;19.40;18.00;;;14.80;1.00;;;;;;2615142;39;20806;-70
2023/02/08 10:05:24;;;;;;;26.40;20.43;;;14.10;1.00;;;;;;2614852;54;20487;-72
2023/02/08 10:11:33;;;;;;;20.93;19.50;;;13.60;1.00;;;;;;2614758;54;20557;-70
2023/02/08 10:24:55;;;;;;;19.80;17.93;;;14.50;1.00;;;;;;2614963;39;20800;-71
2023/02/08 10:40:38;;;;;;;21.03;19.37;;;13.60;1.00;;;;;;2612981;54;20378;-69
2023/02/08 10:52:47;;;;;;;17.73;16.47;;;15.60;1.00;;;;;;2613056;54;20420;-71
2023/02/08 11:01:57;;;;;;;17.10;16.00;;;15.20;1.00;;;;;;2613034;54;20418;-70
2023/02/08 11:07:45;;;;;;;19.53;17.70;;;16.60;1.00;;;;;;2614312;54;20442;-70
2023/02/08 11:13:40;;;;;;;16.57;15.37;;;14.80;1.00;;;;;;2614408;54;20118;-71
2023/02/08 11:19:41;;;;;;;16.20;15.20;;;17.40;1.00;;;;;;2615318;54;20415;-70
2023/02/08 11:25:37;;;;;;;19.13;17.67;;;18.00;1.00;;;;;;2615046;54;20383;-71
2023/02/08 11:31:26;;;;;;;16.77;15.57;;;16.60;1.00;;;;;;2614875;54;20427;-69
2023/02/08 11:37:24;;;;;;;16.87;15.63;;;17.00;1.00;;;;;;2614984;54;20383;-72
2023/02/08 11:43:26;;;;;;;17.77;16.50;;;16.00;1.00;;;;;;2615278;54;20406;-70
2023/02/08 11:49:23;;;;;;;17.37;16.27;;;15.40;1.00;;;;;;2614946;54;20423;-73
2023/02/08 12:06:10;;;;;;;17.40;16.30;;;18.70;1.00;;;;;;2615227;54;20391;-71
2023/02/08 12:12:03;;;;;;;17.50;15.77;;;17.70;1.00;;;;;;2615169;54;20447;-71
2023/02/08 12:24:55;;;;;;;16.27;15.27;;;19.90;1.00;;;;;;2614843;54;20403;-71
2023/02/08 12:44:01;;;;;;;15.17;14.37;;;17.80;1.00;;;;;;2613521;54;20383;-71
2023/02/08 12:56:34;;;;;;;16.30;15.10;;;19.10;1.00;;;;;;2613637;54;20413;-71
2023/02/08 13:02:25;;;;;;;16.53;15.50;;;18.30;1.00;;;;;;2613271;54;20487;-73
2023/02/08 13:05:37;;;;;;;15.80;14.90;;;18.50;1.00;;;;;;2613823;54;20415;-70
2023/02/08 13:11:24;;;;;;;17.17;15.77;;;16.80;1.00;;;;;;2614418;54;20403;-71
2023/02/08 13:17:22;;;;;;;15.97;15.07;;;18.60;1.00;;;;;;2614911;46;20183;-71
2023/02/08 13:29:39;;;;;;;16.57;15.50;;;17.70;1.00;;;;;;2614684;54;20379;-71
2023/02/08 13:35:30;;;;;;;16.40;15.17;;;14.90;1.00;;;;;;2614704;54;20412;-71
2023/02/08 13:41:21;;;;;;;16.90;15.63;;;16.70;1.00;;;;;;2614806;54;20383;-70
2023/02/08 13:53:46;;;;;;;17.50;16.40;;;17.10;1.00;;;;;;2615199;54;20404;-71
2023/02/08 14:09:14;;;;;;;17.27;16.17;;;16.70;1.00;;;;;;2614446;54;20434;-71
2023/02/08 14:15:14;;;;;;;16.93;16.03;;;16.60;1.00;;;;;;2614721;54;20395;-70
2023/02/08 14:21:05;;;;;;;16.50;15.60;;;17.10;1.00;;;;;;2613592;54;20387;-70
2023/02/08 14:33:26;;;;;;;16.60;15.57;;;17.80;1.00;;;;;;2614725;46;20442;-71
2023/02/08 14:39:28;;;;;;;15.23;14.33;;;17.50;1.00;;;;;;2614811;39;21099;-71
2023/02/08 14:52:01;;;;;;;15.43;14.40;;;17.00;1.00;;;;;;2615511;54;20426;-71
2023/02/08 14:57:52;;;;;;;16.50;15.07;;;16.30;1.00;;;;;;2615369;54;20402;-69
2023/02/08 15:03:41;;;;;;;15.37;14.30;;;16.00;1.00;;;;;;2615374;54;20395;-71
2023/02/08 15:09:31;;;;;;;15.80;14.80;;;17.90;1.00;;;;;;2615115;54;20459;-71
2023/02/08 15:12:56;;;;;;;14.90;13.90;;;17.00;1.00;;;;;;2614619;47;20409;-71
2023/02/08 15:18:50;;;;;;;14.77;13.80;;;15.30;1.00;;;;;;2614843;54;20395;-71
2023/02/08 15:37:50;;;;;;;15.43;14.43;;;14.20;1.00;;;;;;2615518;54;20433;-70
2023/02/08 15:43:40;;;;;;;16.07;14.90;;;13.70;1.00;;;;;;2615193;54;20937;-71
2023/02/08 15:49:35;;;;;;;14.03;13.23;;;12.00;1.00;;;;;;2615249;54;20387;-72
2023/02/08 15:55:26;;;;;;;13.40;12.60;;;10.50;1.00;;;;;;2615336;46;20793;-72
2023/02/08 16:01:18;;;;;;;15.50;14.20;;;9.30;1.00;;;;;;2615611;54;20818;-71
2023/02/08 16:13:27;;;;;;;16.97;15.40;;;7.60;1.00;;;;;;2615425;54;20438;-70
2023/02/08 16:16:15;;;;;;;18.43;16.90;;;7.40;1.00;;;;;;2615523;54;20416;-70
2023/02/08 16:22:11;;;;;;;16.70;15.30;;;6.90;1.00;;;;;;2613964;46;20410;-70
2023/02/08 16:28:00;;;;;;;16.73;15.43;;;6.20;1.00;;;;;;2615522;39;20775;-71
2023/02/08 16:47:00;;;;;;;18.30;16.90;;;4.30;1.00;;;;;;2615184;54;20398;-71
2023/02/08 16:52:53;;;;;;;18.20;16.43;;;4.00;1.00;;;;;;2615336;54;20467;-71
2023/02/08 16:58:41;;;;;;;19.47;17.77;;;3.70;1.00;;;;;;2615440;39;20803;-72
2023/02/08 17:04:30;;;;;;;17.77;16.33;;;3.40;1.00;;;;;;2615260;54;20435;-71
2023/02/08 17:17:03;;;;;;;22.33;20.37;;;2.90;1.00;;;;;;2613590;54;20432;-71
2023/02/08 17:22:52;;;;;;;20.07;18.20;;;3.00;1.00;;;;;;2612849;54;20765;-71
2023/02/08 17:28:39;;;;;;;34.27;24.50;;;2.70;1.00;;;;;;2613442;54;20375;-71
2023/02/08 17:34:26;;;;;;;45.50;27.67;;;2.70;1.00;;;;;;2613641;54;20126;-71
2023/02/08 17:40:13;;;;;;;29.90;25.40;;;2.50;6.60;;;;;;2612871;54;20370;-72
2023/02/08 17:46:01;;;;;;;21.20;19.30;;;2.30;1.00;;;;;;2614385;39;20850;-71
2023/02/08 17:51:48;;;;;;;22.97;20.50;;;2.30;1.00;;;;;;2614730;54;21005;-71
2023/02/08 17:57:38;;;;;;;22.03;20.03;;;2.40;1.10;;;;;;2614955;54;20130;-71
2023/02/08 18:03:27;;;;;;;24.83;22.03;;;2.50;1.00;;;;;;2614744;54;20502;-72
2023/02/08 18:09:15;;;;;;;23.63;19.87;;;2.20;3.60;;;;;;2614667;54;20991;-70
2023/02/08 18:18:34;;;;;;;25.30;22.77;;;1.70;11.60;;;;;;2614923;39;20864;-72
2023/02/08 18:24:22;;;;;;;22.43;20.17;;;1.40;13.80;;;;;;2615116;54;20539;-72
2023/02/08 18:30:11;;;;;;;20.73;19.07;;;1.10;25.90;;;;;;2615169;39;20511;-72
2023/02/08 18:35:58;;;;;;;23.73;21.27;;;1.00;31.90;;;;;;2615134;54;20410;-71
2023/02/08 18:41:46;;;;;;;24.20;21.70;;;0.80;49.00;;;;;;2614649;54;20798;-72
2023/02/08 18:47:35;;;;;;;19.27;17.77;;;1.20;23.10;;;;;;2614662;54;20126;-71
2023/02/08 18:53:26;;;;;;;18.20;17.13;;;2.50;1.00;;;;;;2615504;31;20783;-72
2023/02/08 18:59:13;;;;;;;18.30;17.13;;;3.10;1.00;;;;;;2615043;39;20752;-70
2023/02/08 19:05:01;;;;;;;20.03;18.07;;;3.10;1.00;;;;;;2615081;54;20131;-72
2023/02/08 19:10:49;;;;;;;22.07;20.57;;;3.00;1.00;;;;;;2614608;54;20154;-71
2023/02/08 19:14:10;;;;;;;18.60;17.30;;;3.00;1.00;;;;;;2614031;54;20985;-70
2023/02/08 19:16:37;;;;;;;18.03;16.80;;;2.90;1.00;;;;;;2614525;54;20179;-73
2023/02/08 19:22:26;;;;;;;17.70;16.50;;;2.30;1.00;;;;;;2615004;54;20438;-70
2023/02/08 19:28:13;;;;;;;18.40;16.80;;;2.00;1.00;;;;;;2614896;39;20783;-73
2023/02/08 19:34:02;;;;;;;17.10;16.00;;;1.50;1.00;;;;;;2614818;46;20182;-71
2023/02/08 19:39:50;;;;;;;18.40;16.90;;;0.90;1.00;;;;;;2615327;54;20407;-72
2023/02/08 19:45:38;;;;;;;18.30;16.80;;;0.30;5.00;;;;;;2615584;54;20195;-72
2023/02/08 19:51:31;;;;;;;19.57;17.77;;;0.00;12.40;;;;;;2615547;54;20203;-72
2023/02/08 19:57:18;;;;;;;18.27;16.97;;;-0.20;21.00;;;;;;2616240;39;20700;-72
2023/02/08 20:03:07;;;;;;;18.37;17.00;;;0.00;14.70;;;;;;2615474;54;20709;-71
2023/02/08 20:08:55;;;;;;;19.77;18.17;;;-0.40;22.90;;;;;;2614995;39;20776;-71
2023/02/08 20:18:30;;;;;;;19.10;17.60;;;-0.70;39.70;;;;;;2615845;39;20928;-71
2023/02/08 20:24:17;;;;;;;19.40;17.70;;;-1.00;52.80;;;;;;2614423;54;20454;-71
2023/02/08 20:30:05;;;;;;;19.07;17.23;;;-1.30;64.10;;;;;;2615111;54;20424;-71
2023/02/08 20:35:54;;;;;;;17.87;16.27;;;-1.50;90.00;;;;;;2615631;54;20456;-70
2023/02/08 20:41:43;;;;;;;18.23;16.43;;;-1.50;99.20;;;;;;2613900;46;20403;-73
2023/02/08 20:47:34;;;;;;;18.80;17.07;;;-1.60;99.90;;;;;;2615434;54;20374;-70
2023/02/08 20:53:21;;;;;;;18.80;17.00;;;-1.60;99.90;;;;;;2615390;54;20423;-71
2023/02/08 20:59:14;;;;;;;18.97;17.47;;;-1.50;99.90;;;;;;2614315;54;20126;-71
2023/02/08 21:05:02;;;;;;;19.00;17.30;;;-1.70;99.50;;;;;;2615365;54;20370;-71
2023/02/08 21:10:49;;;;;;;19.40;17.77;;;-1.80;99.90;;;;;;2615220;54;20130;-70
2023/02/08 21:13:59;;;;;;;19.83;17.70;;;-1.80;99.90;;;;;;2615232;54;20428;-72
2023/02/08 21:16:25;;;;;;;19.40;17.43;;;-1.60;99.90;;;;;;2615009;54;20177;-73
2023/02/08 21:22:12;;;;;;;20.27;18.37;;;-1.70;99.90;;;;;;2615110;54;20928;-72
2023/02/08 21:28:00;;;;;;;20.73;18.87;;;-1.80;99.90;;;;;;2615357;54;20154;-73
2023/02/08 21:33:49;;;;;;;19.83;17.73;;;-1.80;99.90;;;;;;2615210;54;20130;-70
2023/02/08 21:39:37;;;;;;;20.70;18.67;;;-1.90;99.90;;;;;;2614959;54;20363;-71
2023/02/08 21:45:25;;;;;;;20.60;18.60;;;-1.80;99.90;;;;;;2614406;54;20135;-72
2023/02/08 22:04:03;;;;;;;20.70;18.90;;;-1.90;99.90;;;;;;2613420;54;20382;-73
2023/02/08 22:09:51;;;;;;;24.17;20.03;;;-2.20;99.90;;;;;;2613426;54;20126;-72
2023/02/08 22:19:00;;;;;;;27.40;19.13;;;-2.00;99.90;;;;;;2613473;54;20385;-72
2023/02/08 22:22:03;;;;;;;22.40;20.20;;;-2.30;99.90;;;;;;2613401;54;20404;-70
2023/02/08 22:24:29;;;;;;;21.77;19.43;;;-2.30;99.90;;;;;;2613482;54;20146;-73
2023/02/08 22:30:17;;;;;;;23.43;19.30;;;-2.40;99.90;;;;;;2613359;54;20729;-73
2023/02/08 22:36:06;;;;;;;22.53;20.30;;;-2.30;99.90;;;;;;2613420;54;20370;-70
2023/02/08 22:41:54;;;;;;;20.70;18.70;;;-2.50;99.90;;;;;;2614753;46;20490;-71
2023/02/08 22:47:42;;;;;;;20.10;18.07;;;-2.70;99.90;;;;;;2615099;54;20122;-71
2023/02/08 22:53:29;;;;;;;22.17;18.93;;;-2.70;99.90;;;;;;2614879;54;20185;-72
2023/02/08 22:59:17;;;;;;;25.43;18.80;;;-2.70;99.90;;;;;;2614614;54;20130;-73
2023/02/08 23:05:05;;;;;;;18.17;16.43;;;-2.90;99.90;;;;;;2614944;54;20191;-73
2023/02/08 23:10:58;;;;;;;20.60;18.60;;;-2.80;99.90;;;;;;2615445;54;20432;-71
2023/02/08 23:16:46;;;;;;;19.67;17.70;;;-2.80;99.90;;;;;;2615347;54;20418;-71
2023/02/08 23:22:37;;;;;;;22.47;20.07;;;-2.90;99.90;;;;;;2615547;54;20162;-70
2023/02/08 23:28:25;;;;;;;26.03;19.97;;;-3.00;99.90;;;;;;2615394;54;20394;-72
2023/02/08 23:34:13;;;;;;;22.47;18.00;;;-2.90;99.90;;;;;;2615844;39;20212;-72
2023/02/08 23:40:00;;;;;;;18.00;16.10;;;-3.00;99.90;;;;;;2615303;54;20145;-71
2023/02/08 23:45:48;;;;;;;18.77;16.77;;;-2.40;99.90;;;;;;2615721;54;20621;-71
2023/02/08 23:51:36;;;;;;;18.73;16.83;;;-2.30;99.90;;;;;;2615489;46;20126;-72
2023/02/08 23:57:23;;;;;;;19.33;17.33;;;-1.80;93.10;;;;;;2615354;54;20934;-71
